Time;durP1;ratioP1;P1;durP2;ratioP2;P2;SDS_P1;SDS_P2;PMS_P1;PMS_P2;Temp;Humidity;BMP_temperature;BMP_pressure;BME280_temperature;BME280_humidity;BME280_pressure;Samples;Min_cycle;Max_cycle;Signal;HPM_P1;HPM_P2
2023/03/26 00:01:06;;;;;;;0.20;0.10;;;;;;;;;;4955048;28;20081;-78
2023/03/26 00:03:33;;;;;;;0.20;0.10;;;;;;;;;;4968738;28;20042;-76
2023/03/26 00:06:04;;;;;;;0.20;0.10;;;;;;;;;;4973417;28;20031;-78
2023/03/26 00:08:31;;;;;;;0.20;0.10;;;;;;;;;;4970280;28;20496;-78
2023/03/26 00:10:57;;;;;;;0.20;0.10;;;;;;;;;;4953452;28;20042;-77
2023/03/26 00:13:23;;;;;;;0.20;0.10;;;;;;;;;;4954039;28;20495;-77
2023/03/26 00:15:49;;;;;;;0.20;0.10;;;;;;;;;;4965386;28;20097;-77
2023/03/26 00:18:15;;;;;;;0.20;0.10;;;;;;;;;;4956429;28;20258;-77
2023/03/26 00:20:44;;;;;;;0.20;0.10;;;;;;;;;;4961590;28;20074;-77
2023/03/26 00:23:10;;;;;;;0.20;0.10;;;;;;;;;;4957564;28;20537;-77
2023/03/26 00:25:40;;;;;;;0.20;0.10;;;;;;;;;;4947055;28;20165;-77
2023/03/26 00:28:06;;;;;;;0.57;0.57;;;;;;;;;;4956976;28;20561;-77
2023/03/26 00:30:34;;;;;;;0.20;0.10;;;;;;;;;;4954047;28;20046;-78
2023/03/26 00:33:00;;;;;;;0.20;0.10;;;;;;;;;;4951568;28;22086;-77
2023/03/26 00:35:28;;;;;;;0.20;0.10;;;;;;;;;;4937100;28;20073;-77
2023/03/26 00:37:54;;;;;;;0.20;0.10;;;;;;;;;;4956452;28;21152;-76
2023/03/26 00:40:20;;;;;;;0.20;0.10;;;;;;;;;;4955768;28;20046;-76
2023/03/26 00:42:46;;;;;;;0.20;0.10;;;;;;;;;;4960123;28;20116;-77
2023/03/26 00:45:12;;;;;;;0.20;0.10;;;;;;;;;;4953837;28;20064;-77
2023/03/26 00:47:39;;;;;;;0.20;0.10;;;;;;;;;;4965096;28;20121;-76
2023/03/26 00:50:06;;;;;;;0.20;0.10;;;;;;;;;;4965227;28;20046;-77
2023/03/26 00:52:35;;;;;;;0.20;0.10;;;;;;;;;;4965315;28;20078;-76
2023/03/26 00:55:01;;;;;;;0.20;0.10;;;;;;;;;;4958720;28;20094;-77
2023/03/26 00:57:28;;;;;;;0.20;0.10;;;;;;;;;;4978566;28;20082;-77
2023/03/26 00:59:55;;;;;;;0.20;0.10;;;;;;;;;;4968459;28;20359;-77
2023/03/26 01:02:21;;;;;;;0.20;0.20;;;;;;;;;;4957738;28;20303;-75
2023/03/26 01:04:56;;;;;;;0.20;0.10;;;;;;;;;;4967936;28;20038;-76
2023/03/26 01:07:27;;;;;;;0.20;0.10;;;;;;;;;;4981381;28;20419;-77
2023/03/26 01:09:54;;;;;;;0.20;0.10;;;;;;;;;;4967656;28;20041;-76
2023/03/26 01:12:23;;;;;;;0.20;0.10;;;;;;;;;;4965133;28;20486;-77
2023/03/26 01:14:51;;;;;;;0.20;0.10;;;;;;;;;;4959490;28;20104;-77
2023/03/26 01:17:17;;;;;;;0.20;0.10;;;;;;;;;;4960715;28;20129;-76
2023/03/26 01:19:49;;;;;;;0.20;0.10;;;;;;;;;;4970976;28;20050;-77
2023/03/26 01:22:17;;;;;;;0.20;0.10;;;;;;;;;;4967471;28;20180;-76
2023/03/26 01:24:51;;;;;;;0.20;0.10;;;;;;;;;;4963286;28;20043;-77
2023/03/26 01:27:32;;;;;;;0.20;0.10;;;;;;;;;;4950994;28;20038;-76
2023/03/26 01:30:17;;;;;;;0.20;0.10;;;;;;;;;;4970958;28;20081;-77
2023/03/26 01:32:46;;;;;;;0.20;0.10;;;;;;;;;;4966542;28;20045;-76
2023/03/26 01:35:24;;;;;;;0.20;0.10;;;;;;;;;;4962752;28;20404;-77
2023/03/26 01:38:01;;;;;;;0.20;0.10;;;;;;;;;;4968749;28;20046;-76
2023/03/26 01:40:27;;;;;;;0.20;0.10;;;;;;;;;;4983636;28;20184;-77
2023/03/26 01:42:58;;;;;;;0.20;0.10;;;;;;;;;;4971831;28;20039;-77
2023/03/26 01:45:27;;;;;;;0.20;0.10;;;;;;;;;;4964716;28;20292;-75
2023/03/26 01:47:55;;;;;;;0.20;0.10;;;;;;;;;;4966765;28;20066;-77
2023/03/26 01:50:21;;;;;;;0.20;0.10;;;;;;;;;;4968235;28;20041;-77
2023/03/26 01:52:47;;;;;;;0.20;0.10;;;;;;;;;;4952557;28;21448;-77
2023/03/26 01:55:13;;;;;;;0.20;0.10;;;;;;;;;;4968199;28;20081;-78
2023/03/26 01:57:48;;;;;;;0.20;0.10;;;;;;;;;;4962510;28;20043;-78
2023/03/26 02:00:22;;;;;;;0.20;0.10;;;;;;;;;;4969581;28;20069;-78
2023/03/26 02:02:53;;;;;;;0.20;0.10;;;;;;;;;;4970730;28;20072;-78
2023/03/26 02:05:19;;;;;;;0.20;0.10;;;;;;;;;;4954715;28;20045;-78
2023/03/26 02:07:51;;;;;;;0.20;0.10;;;;;;;;;;4972286;28;20035;-78
2023/03/26 02:10:26;;;;;;;0.20;0.10;;;;;;;;;;4972335;28;20034;-78
2023/03/26 02:12:53;;;;;;;0.20;0.10;;;;;;;;;;4969922;28;20499;-78
2023/03/26 02:15:19;;;;;;;0.20;0.10;;;;;;;;;;4967633;28;20150;-78
2023/03/26 02:17:45;;;;;;;0.20;0.10;;;;;;;;;;4966502;28;20621;-79
2023/03/26 02:20:14;;;;;;;0.20;0.10;;;;;;;;;;4972947;28;20462;-79
2023/03/26 02:22:44;;;;;;;0.20;0.10;;;;;;;;;;4970814;28;20359;-78
2023/03/26 02:25:11;;;;;;;0.20;0.10;;;;;;;;;;4971494;28;20045;-78
2023/03/26 02:27:37;;;;;;;0.20;0.10;;;;;;;;;;4960189;28;20649;-79
2023/03/26 02:30:05;;;;;;;0.20;0.10;;;;;;;;;;4959887;28;20062;-78
2023/03/26 02:32:31;;;;;;;0.20;0.10;;;;;;;;;;4965229;28;20039;-78
2023/03/26 02:34:57;;;;;;;0.20;0.10;;;;;;;;;;4945479;28;20042;-79
2023/03/26 02:37:23;;;;;;;0.20;0.10;;;;;;;;;;4943548;28;24963;-79
2023/03/26 02:39:49;;;;;;;0.20;0.10;;;;;;;;;;4949052;28;20039;-79
2023/03/26 02:42:15;;;;;;;0.20;0.10;;;;;;;;;;4944169;28;20046;-79
2023/03/26 02:44:41;;;;;;;0.20;0.10;;;;;;;;;;4963965;28;20153;-79
2023/03/26 02:47:07;;;;;;;0.20;0.10;;;;;;;;;;4956486;28;20506;-79
2023/03/26 02:49:33;;;;;;;0.20;0.10;;;;;;;;;;4961773;28;20534;-79
2023/03/26 02:52:00;;;;;;;0.20;0.10;;;;;;;;;;4968698;28;20069;-79
2023/03/26 02:54:26;;;;;;;0.20;0.10;;;;;;;;;;4967554;28;20133;-79
2023/03/26 02:56:52;;;;;;;0.20;0.10;;;;;;;;;;4950737;28;20400;-79
2023/03/26 02:59:18;;;;;;;0.20;0.10;;;;;;;;;;4952475;28;20043;-80
2023/03/26 03:01:44;;;;;;;0.20;0.10;;;;;;;;;;4955831;28;20054;-79
2023/03/26 03:04:10;;;;;;;0.20;0.10;;;;;;;;;;4955372;28;20125;-79
2023/03/26 03:06:37;;;;;;;0.20;0.10;;;;;;;;;;4966850;28;20057;-79
2023/03/26 03:09:04;;;;;;;0.20;0.10;;;;;;;;;;4955516;28;20121;-80
2023/03/26 03:11:30;;;;;;;0.20;0.10;;;;;;;;;;4972710;28;20097;-81
2023/03/26 03:13:56;;;;;;;0.20;0.10;;;;;;;;;;4967987;28;20107;-80
2023/03/26 03:16:22;;;;;;;0.20;0.10;;;;;;;;;;4960545;28;20393;-79
2023/03/26 03:18:53;;;;;;;0.20;0.00;;;;;;;;;;4958318;28;20053;-79
2023/03/26 03:21:19;;;;;;;0.20;0.10;;;;;;;;;;4943349;28;20038;-80
2023/03/26 03:23:46;;;;;;;0.20;0.10;;;;;;;;;;4961382;28;20465;-79
2023/03/26 03:26:14;;;;;;;0.20;0.10;;;;;;;;;;4951240;28;20463;-79
2023/03/26 03:28:40;;;;;;;0.20;0.10;;;;;;;;;;4956021;28;20050;-78
2023/03/26 03:31:07;;;;;;;0.20;0.10;;;;;;;;;;4940992;28;20491;-79
2023/03/26 03:33:34;;;;;;;0.20;0.10;;;;;;;;;;4970669;28;20525;-79
2023/03/26 03:36:00;;;;;;;0.20;0.10;;;;;;;;;;4967262;28;20043;-79
2023/03/26 03:38:26;;;;;;;0.20;0.10;;;;;;;;;;4964632;28;20038;-79
2023/03/26 03:40:54;;;;;;;0.20;0.10;;;;;;;;;;4956994;28;20581;-80
2023/03/26 03:43:20;;;;;;;0.20;0.10;;;;;;;;;;4970485;28;20053;-80
2023/03/26 03:45:46;;;;;;;0.20;0.10;;;;;;;;;;4970379;28;20038;-80
2023/03/26 03:48:12;;;;;;;0.20;0.10;;;;;;;;;;4975828;28;20568;-80
2023/03/26 03:50:38;;;;;;;0.20;0.10;;;;;;;;;;4971876;28;20049;-81
2023/03/26 03:53:04;;;;;;;0.20;0.10;;;;;;;;;;4966558;28;20497;-81
2023/03/26 03:55:30;;;;;;;0.20;0.10;;;;;;;;;;4972048;28;20045;-81
2023/03/26 03:57:57;;;;;;;15.38;0.57;;;;;;;;;;4972348;28;20046;-81
2023/03/26 04:00:23;;;;;;;0.20;0.10;;;;;;;;;;4967717;28;20115;-82
2023/03/26 04:02:53;;;;;;;0.20;0.10;;;;;;;;;;4938300;28;20078;-81
2023/03/26 04:05:19;;;;;;;0.20;0.10;;;;;;;;;;4982212;28;20894;-82
2023/03/26 04:07:45;;;;;;;0.20;0.10;;;;;;;;;;4966439;28;20069;-81
2023/03/26 04:10:14;;;;;;;0.20;0.20;;;;;;;;;;4947292;28;20038;-81
2023/03/26 04:12:40;;;;;;;0.20;0.10;;;;;;;;;;4962844;28;20038;-80
2023/03/26 04:15:06;;;;;;;0.20;0.10;;;;;;;;;;4973840;28;20062;-81
2023/03/26 04:17:32;;;;;;;0.20;0.10;;;;;;;;;;4963707;28;20105;-80
2023/03/26 04:20:12;;;;;;;0.28;0.20;;;;;;;;;;4959616;28;20376;-81
2023/03/26 04:22:39;;;;;;;0.20;0.10;;;;;;;;;;4970999;28;20038;-81
2023/03/26 04:25:06;;;;;;;0.20;0.10;;;;;;;;;;4966339;28;20085;-81
2023/03/26 04:27:36;;;;;;;0.20;0.10;;;;;;;;;;4969775;28;20039;-81
2023/03/26 04:30:04;;;;;;;0.20;0.10;;;;;;;;;;4968616;28;20039;-80
2023/03/26 04:32:33;;;;;;;0.20;0.10;;;;;;;;;;4961610;28;20050;-81
2023/03/26 04:35:02;;;;;;;0.20;0.10;;;;;;;;;;4968716;28;20081;-80
2023/03/26 04:37:33;;;;;;;0.20;0.10;;;;;;;;;;4966835;28;20096;-80
2023/03/26 04:39:59;;;;;;;0.20;0.10;;;;;;;;;;4973105;28;20136;-80
2023/03/26 04:42:25;;;;;;;0.20;0.10;;;;;;;;;;4950069;28;20126;-81
2023/03/26 04:44:51;;;;;;;0.20;0.10;;;;;;;;;;4970059;28;20046;-80
2023/03/26 04:47:17;;;;;;;0.20;0.10;;;;;;;;;;4970786;28;20042;-80
2023/03/26 04:49:45;;;;;;;0.20;0.10;;;;;;;;;;4953265;28;20034;-80
2023/03/26 04:52:11;;;;;;;0.20;0.10;;;;;;;;;;4983870;28;20050;-81
2023/03/26 04:54:38;;;;;;;0.45;0.45;;;;;;;;;;4958023;28;20487;-80
2023/03/26 04:57:07;;;;;;;0.20;0.10;;;;;;;;;;4958694;28;20049;-81
2023/03/26 04:59:33;;;;;;;0.20;0.17;;;;;;;;;;4951457;28;20074;-81
2023/03/26 05:02:00;;;;;;;0.20;0.10;;;;;;;;;;4964294;28;20043;-80
2023/03/26 05:04:30;;;;;;;0.90;0.43;;;;;;;;;;4945998;28;20500;-80
2023/03/26 05:06:57;;;;;;;0.20;0.10;;;;;;;;;;4949510;28;20057;-80
2023/03/26 05:09:23;;;;;;;0.20;0.10;;;;;;;;;;4964246;28;20070;-80
2023/03/26 05:11:50;;;;;;;0.20;0.10;;;;;;;;;;4967160;28;21968;-80
2023/03/26 05:14:17;;;;;;;0.20;0.10;;;;;;;;;;4948159;28;20034;-80
2023/03/26 05:16:43;;;;;;;0.20;0.10;;;;;;;;;;4965512;28;20137;-80
2023/03/26 05:19:10;;;;;;;0.20;0.10;;;;;;;;;;4973251;28;20403;-80
2023/03/26 05:21:36;;;;;;;0.20;0.10;;;;;;;;;;4977709;28;20042;-80
2023/03/26 05:24:02;;;;;;;0.20;0.10;;;;;;;;;;4972066;28;20038;-81
2023/03/26 05:26:28;;;;;;;0.20;0.10;;;;;;;;;;4972477;28;20093;-81
2023/03/26 05:28:55;;;;;;;0.20;0.10;;;;;;;;;;4977411;28;20042;-80
2023/03/26 05:31:21;;;;;;;0.20;0.10;;;;;;;;;;5010926;23;20710;-82
2023/03/26 05:33:47;;;;;;;0.20;0.10;;;;;;;;;;5016220;28;20063;-82
2023/03/26 05:36:14;;;;;;;0.20;0.10;;;;;;;;;;5006127;28;20045;-82
2023/03/26 05:38:41;;;;;;;0.20;0.10;;;;;;;;;;5001313;28;20129;-81
2023/03/26 05:41:08;;;;;;;0.20;0.10;;;;;;;;;;4983839;28;20042;-81
2023/03/26 05:43:34;;;;;;;0.20;0.10;;;;;;;;;;4977077;28;20045;-81
2023/03/26 05:46:00;;;;;;;0.20;0.10;;;;;;;;;;4986320;28;20470;-81
2023/03/26 05:48:27;;;;;;;0.20;0.10;;;;;;;;;;4999893;28;20042;-81
2023/03/26 05:50:54;;;;;;;0.20;0.10;;;;;;;;;;5001886;28;20121;-81
2023/03/26 05:53:21;;;;;;;0.20;0.10;;;;;;;;;;5004965;28;20773;-82
2023/03/26 05:55:56;;;;;;;0.20;0.10;;;;;;;;;;4993522;28;20556;-82
2023/03/26 05:58:22;;;;;;;0.20;0.10;;;;;;;;;;4977730;28;20049;-82
2023/03/26 06:00:48;;;;;;;0.20;0.10;;;;;;;;;;5004443;28;20042;-81
2023/03/26 06:03:15;;;;;;;0.20;0.20;;;;;;;;;;4992740;28;20053;-81
2023/03/26 06:05:41;;;;;;;0.20;0.10;;;;;;;;;;4999184;28;20045;-82
2023/03/26 06:08:08;;;;;;;0.20;0.10;;;;;;;;;;4978566;28;20069;-81
2023/03/26 06:10:37;;;;;;;0.20;0.10;;;;;;;;;;4995845;28;20571;-81
2023/03/26 06:13:03;;;;;;;0.20;0.10;;;;;;;;;;4982862;28;20108;-83
2023/03/26 06:15:29;;;;;;;0.20;0.10;;;;;;;;;;5001443;28;20042;-81
2023/03/26 06:17:55;;;;;;;0.20;0.10;;;;;;;;;;4985838;28;20038;-83
2023/03/26 06:20:21;;;;;;;0.20;0.10;;;;;;;;;;4985376;28;20034;-82
2023/03/26 06:22:47;;;;;;;0.20;0.10;;;;;;;;;;4991517;28;20134;-83
2023/03/26 06:25:13;;;;;;;0.20;0.10;;;;;;;;;;5001486;28;20061;-81
2023/03/26 06:27:39;;;;;;;0.20;0.10;;;;;;;;;;4991520;28;21970;-82
2023/03/26 06:30:06;;;;;;;0.20;0.10;;;;;;;;;;4994547;28;20073;-80
2023/03/26 06:32:32;;;;;;;0.20;0.10;;;;;;;;;;4977043;28;20545;-80
2023/03/26 06:34:58;;;;;;;0.20;0.10;;;;;;;;;;4999122;28;20751;-81
2023/03/26 06:37:24;;;;;;;0.20;0.10;;;;;;;;;;4989859;28;20054;-81
2023/03/26 06:39:50;;;;;;;0.20;0.10;;;;;;;;;;5000162;28;20072;-82
2023/03/26 06:42:16;;;;;;;0.20;0.10;;;;;;;;;;4979767;28;20049;-84
2023/03/26 06:44:42;;;;;;;0.20;0.10;;;;;;;;;;4981255;28;20404;-81
2023/03/26 06:47:08;;;;;;;0.20;0.10;;;;;;;;;;4992515;28;21621;-82
2023/03/26 06:49:34;;;;;;;0.20;0.10;;;;;;;;;;4990679;28;20038;-83
2023/03/26 06:52:01;;;;;;;0.20;0.10;;;;;;;;;;4997320;28;20042;-82
2023/03/26 06:54:27;;;;;;;0.20;0.10;;;;;;;;;;4996586;28;20033;-82
2023/03/26 06:56:53;;;;;;;0.20;0.10;;;;;;;;;;4994897;28;20038;-82
2023/03/26 06:59:20;;;;;;;0.20;0.10;;;;;;;;;;4990043;28;20083;-83
2023/03/26 07:01:46;;;;;;;0.20;0.10;;;;;;;;;;4981585;28;20038;-82
2023/03/26 07:04:12;;;;;;;0.20;0.10;;;;;;;;;;4998714;28;20046;-83
2023/03/26 07:06:38;;;;;;;0.20;0.10;;;;;;;;;;4980459;28;20124;-82
2023/03/26 07:09:05;;;;;;;0.20;0.10;;;;;;;;;;4986407;28;20129;-82
2023/03/26 07:11:31;;;;;;;0.20;0.10;;;;;;;;;;4978548;28;20033;-81
2023/03/26 07:13:58;;;;;;;0.20;0.10;;;;;;;;;;4991480;28;20742;-82
2023/03/26 07:16:24;;;;;;;0.20;0.10;;;;;;;;;;4968761;28;20053;-82
2023/03/26 07:18:53;;;;;;;0.20;0.10;;;;;;;;;;4971089;28;20173;-83
2023/03/26 07:21:20;;;;;;;0.20;0.10;;;;;;;;;;4988779;28;20050;-82
2023/03/26 07:23:46;;;;;;;0.20;0.10;;;;;;;;;;4961339;28;20038;-82
2023/03/26 07:26:18;;;;;;;0.20;0.10;;;;;;;;;;4984876;28;20042;-83
2023/03/26 07:28:51;;;;;;;0.20;0.00;;;;;;;;;;4974604;28;20128;-82
2023/03/26 07:31:55;;;;;;;0.20;0.10;;;;;;;;;;4980767;28;20050;-82
2023/03/26 07:34:31;;;;;;;17.92;0.88;;;;;;;;;;4909317;28;20051;-81
2023/03/26 07:37:00;;;;;;;0.20;0.10;;;;;;;;;;4911115;28;20114;-80
2023/03/26 07:39:26;;;;;;;0.20;0.10;;;;;;;;;;4944343;28;20064;-81
2023/03/26 07:42:01;;;;;;;0.20;0.10;;;;;;;;;;4957777;28;20038;-82
2023/03/26 07:44:42;;;;;;;0.20;0.10;;;;;;;;;;4990020;28;20045;-81
2023/03/26 07:47:28;;;;;;;0.20;0.10;;;;;;;;;;4972258;28;20046;-81
2023/03/26 07:49:56;;;;;;;0.20;0.10;;;;;;;;;;4967252;28;20513;-82
2023/03/26 07:52:22;;;;;;;0.20;0.10;;;;;;;;;;4973922;28;20160;-81
2023/03/26 07:54:48;;;;;;;0.20;0.10;;;;;;;;;;4957558;28;20096;-81
2023/03/26 07:57:31;;;;;;;0.20;0.10;;;;;;;;;;4984724;28;20103;-82
2023/03/26 08:00:00;;;;;;;0.20;0.10;;;;;;;;;;4965913;28;20056;-82
2023/03/26 08:02:30;;;;;;;0.20;0.10;;;;;;;;;;4973175;28;20046;-81
2023/03/26 08:05:17;;;;;;;0.20;0.10;;;;;;;;;;4974915;28;20088;-81
2023/03/26 08:07:58;;;;;;;0.20;0.10;;;;;;;;;;4959396;28;20037;-81
2023/03/26 08:10:44;;;;;;;0.20;0.10;;;;;;;;;;4964820;28;20670;-80
2023/03/26 08:13:29;;;;;;;0.20;0.10;;;;;;;;;;4960618;28;20502;-80
2023/03/26 08:16:04;;;;;;;0.20;0.10;;;;;;;;;;4976375;28;20644;-79
2023/03/26 08:18:30;;;;;;;0.20;0.10;;;;;;;;;;4972171;28;20057;-80
2023/03/26 08:20:59;;;;;;;0.20;0.20;;;;;;;;;;4975922;28;20026;-81
2023/03/26 08:23:29;;;;;;;0.20;0.10;;;;;;;;;;4984044;28;20037;-81
2023/03/26 08:26:14;;;;;;;0.20;0.10;;;;;;;;;;4980978;28;20045;-80
2023/03/26 08:29:10;;;;;;;0.20;0.10;;;;;;;;;;4975094;28;20046;-81
2023/03/26 08:31:38;;;;;;;0.30;0.22;;;;;;;;;;4953530;28;20574;-79
2023/03/26 08:34:05;;;;;;;0.20;0.10;;;;;;;;;;4964603;28;20042;-83
2023/03/26 08:36:31;;;;;;;0.20;0.10;;;;;;;;;;4995204;28;20133;-81
2023/03/26 08:39:00;;;;;;;0.20;0.10;;;;;;;;;;4985703;28;20034;-82
2023/03/26 08:41:35;;;;;;;0.20;0.10;;;;;;;;;;4985316;28;20034;-81
2023/03/26 08:44:20;;;;;;;0.20;0.10;;;;;;;;;;4979335;28;20044;-81
2023/03/26 08:47:01;;;;;;;0.20;0.20;;;;;;;;;;4991542;28;20057;-80
2023/03/26 08:49:27;;;;;;;0.20;0.10;;;;;;;;;;4991465;28;20048;-80
2023/03/26 08:52:12;;;;;;;0.20;0.10;;;;;;;;;;4976585;28;20041;-80
2023/03/26 08:54:41;;;;;;;0.20;0.10;;;;;;;;;;4970486;28;20158;-82
2023/03/26 08:57:17;;;;;;;0.25;0.17;;;;;;;;;;4976699;28;20681;-80
2023/03/26 08:59:49;;;;;;;0.20;0.10;;;;;;;;;;4966713;28;20073;-82
2023/03/26 09:02:38;;;;;;;0.20;0.10;;;;;;;;;;4972776;28;20034;-81
2023/03/26 09:05:05;;;;;;;0.20;0.10;;;;;;;;;;4930192;28;20239;-80
2023/03/26 09:07:49;;;;;;;0.35;0.20;;;;;;;;;;4971636;28;20710;-78
2023/03/26 09:10:29;;;;;;;0.20;0.10;;;;;;;;;;4978150;28;20121;-80
2023/03/26 09:13:10;;;;;;;0.20;0.10;;;;;;;;;;4982542;28;20161;-82
2023/03/26 09:15:45;;;;;;;0.20;0.10;;;;;;;;;;4985623;28;20045;-81
2023/03/26 09:18:24;;;;;;;0.20;0.10;;;;;;;;;;4978768;28;20046;-82
2023/03/26 09:21:00;;;;;;;0.20;0.10;;;;;;;;;;4997341;28;20414;-82
2023/03/26 09:23:52;;;;;;;0.20;0.10;;;;;;;;;;4967521;28;20057;-83
2023/03/26 09:26:25;;;;;;;0.20;0.10;;;;;;;;;;4962421;28;20634;-82
2023/03/26 09:28:57;;;;;;;0.20;0.10;;;;;;;;;;4974444;28;20042;-81
2023/03/26 09:31:29;;;;;;;0.20;0.10;;;;;;;;;;4970580;28;20040;-82
2023/03/26 09:33:58;;;;;;;0.20;0.10;;;;;;;;;;4988798;28;20667;-81
2023/03/26 09:36:32;;;;;;;0.20;0.10;;;;;;;;;;4978074;28;20049;-82
2023/03/26 09:39:07;;;;;;;0.20;0.10;;;;;;;;;;4994366;28;20042;-80
2023/03/26 09:41:50;;;;;;;0.20;0.10;;;;;;;;;;4987262;28;20049;-82
2023/03/26 09:44:35;;;;;;;0.20;0.10;;;;;;;;;;4977696;28;20553;-82
2023/03/26 09:47:24;;;;;;;0.20;0.13;;;;;;;;;;4984976;28;20112;-82
2023/03/26 09:49:50;;;;;;;0.20;0.10;;;;;;;;;;4989459;28;20033;-83
2023/03/26 09:52:25;;;;;;;0.20;0.10;;;;;;;;;;4969306;28;20083;-83
2023/03/26 09:54:51;;;;;;;0.20;0.10;;;;;;;;;;4979391;28;20244;-82
2023/03/26 09:57:30;;;;;;;0.38;0.28;;;;;;;;;;4969424;28;20038;-81
2023/03/26 10:00:16;;;;;;;0.20;0.10;;;;;;;;;;4988840;28;20042;-83
2023/03/26 10:02:47;;;;;;;0.20;0.10;;;;;;;;;;4961283;28;20065;-82
2023/03/26 10:05:19;;;;;;;0.20;0.10;;;;;;;;;;4971214;28;20041;-81
2023/03/26 10:08:06;;;;;;;0.20;0.10;;;;;;;;;;4961854;28;20053;-78
2023/03/26 10:10:41;;;;;;;0.95;0.55;;;;;;;;;;4972659;28;20041;-78
2023/03/26 10:13:10;;;;;;;0.20;0.20;;;;;;;;;;4967135;28;20098;-78
2023/03/26 10:15:53;;;;;;;0.20;0.10;;;;;;;;;;4982340;28;20042;-82
2023/03/26 10:18:38;;;;;;;0.20;0.10;;;;;;;;;;4971500;28;20494;-82
2023/03/26 10:21:13;;;;;;;0.20;0.10;;;;;;;;;;4980144;28;20123;-83
2023/03/26 10:24:09;;;;;;;0.20;0.10;;;;;;;;;;4997338;28;20116;-83
2023/03/26 10:27:00;;;;;;;0.20;0.10;;;;;;;;;;4977008;28;20109;-78
2023/03/26 10:29:26;;;;;;;0.20;0.10;;;;;;;;;;5016937;28;20021;-80
2023/03/26 10:32:25;;;;;;;0.20;0.10;;;;;;;;;;4985998;28;20242;-80
2023/03/26 10:34:51;;;;;;;0.20;0.10;;;;;;;;;;4923843;28;20373;-77
2023/03/26 10:37:36;;;;;;;0.20;0.10;;;;;;;;;;4976984;28;20046;-77
2023/03/26 10:40:05;;;;;;;0.20;0.10;;;;;;;;;;4979127;28;20674;-74
2023/03/26 10:42:39;;;;;;;0.30;0.30;;;;;;;;;;4980582;28;20042;-76
2023/03/26 10:45:17;;;;;;;0.20;0.10;;;;;;;;;;4955626;28;22832;-80
2023/03/26 10:48:02;;;;;;;0.20;0.10;;;;;;;;;;4983757;28;20818;-79
2023/03/26 10:50:47;;;;;;;0.20;0.05;;;;;;;;;;4996900;28;20045;-78
2023/03/26 10:53:25;;;;;;;0.20;0.10;;;;;;;;;;5007635;28;20042;-80
2023/03/26 10:55:54;;;;;;;0.52;0.52;;;;;;;;;;4992105;28;20115;-81
2023/03/26 10:58:25;;;;;;;0.20;0.10;;;;;;;;;;5000554;28;20045;-79
2023/03/26 11:00:57;;;;;;;0.20;0.10;;;;;;;;;;4982472;28;20045;-79
2023/03/26 11:03:53;;;;;;;0.20;0.10;;;;;;;;;;4987848;28;20092;-77
2023/03/26 11:06:29;;;;;;;0.20;0.20;;;;;;;;;;4986787;28;20058;-80
2023/03/26 11:09:00;;;;;;;0.20;0.10;;;;;;;;;;4980630;28;20052;-83
2023/03/26 11:11:37;;;;;;;0.20;0.10;;;;;;;;;;4999186;28;20155;-81
2023/03/26 11:14:08;;;;;;;0.20;0.10;;;;;;;;;;4987662;28;20477;-83
2023/03/26 11:16:51;;;;;;;0.20;0.10;;;;;;;;;;4988116;28;20045;-83
2023/03/26 11:19:23;;;;;;;0.20;0.10;;;;;;;;;;4983445;28;20075;-82
2023/03/26 11:22:04;;;;;;;0.20;0.10;;;;;;;;;;5001491;28;20042;-81
2023/03/26 11:24:33;;;;;;;0.20;0.10;;;;;;;;;;4994894;28;20040;-80
2023/03/26 11:27:07;;;;;;;0.20;0.10;;;;;;;;;;5004353;28;20045;-82
2023/03/26 11:29:44;;;;;;;0.20;0.10;;;;;;;;;;4972679;28;20077;-81
2023/03/26 11:32:17;;;;;;;0.20;0.10;;;;;;;;;;5002097;23;20049;-78
2023/03/26 11:34:47;;;;;;;0.20;0.10;;;;;;;;;;4961837;28;20048;-80
2023/03/26 11:37:29;;;;;;;0.20;0.10;;;;;;;;;;4988949;28;20054;-77
2023/03/26 11:39:57;;;;;;;0.20;0.10;;;;;;;;;;4982150;28;20069;-79
2023/03/26 11:42:24;;;;;;;0.20;0.10;;;;;;;;;;4989853;28;20046;-80
2023/03/26 11:44:55;;;;;;;0.20;0.10;;;;;;;;;;4994859;28;20061;-79
2023/03/26 11:47:24;;;;;;;0.20;0.10;;;;;;;;;;4969395;28;20057;-77
2023/03/26 11:49:51;;;;;;;0.20;0.10;;;;;;;;;;4991591;28;21627;-78
2023/03/26 11:52:17;;;;;;;0.20;0.10;;;;;;;;;;4969406;28;20053;-79
2023/03/26 11:54:47;;;;;;;0.20;0.10;;;;;;;;;;4972848;28;20050;-80
2023/03/26 11:57:19;;;;;;;0.20;0.10;;;;;;;;;;4971111;28;20526;-77
2023/03/26 11:59:50;;;;;;;0.20;0.10;;;;;;;;;;4996067;28;20050;-77
2023/03/26 12:02:23;;;;;;;0.20;0.10;;;;;;;;;;4985384;28;20467;-80
2023/03/26 12:05:02;;;;;;;0.20;0.10;;;;;;;;;;4988000;28;20054;-81
2023/03/26 12:07:35;;;;;;;0.20;0.10;;;;;;;;;;4975183;28;20039;-82
2023/03/26 12:10:05;;;;;;;0.20;0.10;;;;;;;;;;4974069;28;22122;-79
2023/03/26 12:12:38;;;;;;;0.20;0.10;;;;;;;;;;4954632;28;20076;-83
2023/03/26 12:15:11;;;;;;;0.20;0.10;;;;;;;;;;4993658;28;20049;-78
2023/03/26 12:17:39;;;;;;;0.20;0.10;;;;;;;;;;4963305;28;20049;-80
2023/03/26 12:20:26;;;;;;;0.20;0.10;;;;;;;;;;4966397;28;20346;-77
2023/03/26 12:22:52;;;;;;;0.20;0.10;;;;;;;;;;4957305;28;23401;-81
2023/03/26 12:25:23;;;;;;;0.20;0.10;;;;;;;;;;4990137;28;20483;-83
2023/03/26 12:27:51;;;;;;;0.20;0.10;;;;;;;;;;4971124;28;20047;-81
2023/03/26 12:30:20;;;;;;;0.20;0.10;;;;;;;;;;4983376;28;20038;-78
2023/03/26 12:32:47;;;;;;;0.20;0.10;;;;;;;;;;4974824;28;20398;-79
2023/03/26 12:35:17;;;;;;;0.20;0.10;;;;;;;;;;4995727;28;20038;-82
2023/03/26 12:37:44;;;;;;;0.20;0.10;;;;;;;;;;4993234;28;20739;-79
2023/03/26 12:40:27;;;;;;;0.20;0.10;;;;;;;;;;5000850;28;20492;-81
2023/03/26 12:42:56;;;;;;;0.20;0.10;;;;;;;;;;4943398;28;20097;-81
2023/03/26 12:45:23;;;;;;;0.20;0.10;;;;;;;;;;5002472;28;20034;-81
2023/03/26 12:47:49;;;;;;;0.20;0.10;;;;;;;;;;4975292;28;20125;-86
2023/03/26 12:50:23;;;;;;;0.20;0.10;;;;;;;;;;4970066;28;20428;-85
2023/03/26 12:53:01;;;;;;;0.22;0.13;;;;;;;;;;4966237;28;20045;-79
2023/03/26 12:55:35;;;;;;;0.20;0.10;;;;;;;;;;4997303;28;22778;-85
2023/03/26 12:58:20;;;;;;;0.20;0.10;;;;;;;;;;4965835;28;20054;-82
2023/03/26 13:01:14;;;;;;;2.60;2.38;;;;;;;;;;4974989;28;20673;-85
2023/03/26 13:03:59;;;;;;;0.20;0.10;;;;;;;;;;4989844;28;20082;-82
2023/03/26 13:06:29;;;;;;;0.20;0.10;;;;;;;;;;5008711;28;20054;-83
2023/03/26 13:08:56;;;;;;;0.20;0.10;;;;;;;;;;4975394;28;20054;-83
2023/03/26 13:11:28;;;;;;;0.20;0.10;;;;;;;;;;4961313;28;20775;-80
2023/03/26 13:14:07;;;;;;;0.20;0.10;;;;;;;;;;4983718;28;20764;-82
2023/03/26 13:16:58;;;;;;;0.20;0.10;;;;;;;;;;4984411;28;20046;-81
2023/03/26 13:19:45;;;;;;;0.20;0.10;;;;;;;;;;5013334;28;20043;-83
2023/03/26 13:22:21;;;;;;;0.30;0.20;;;;;;;;;;5010394;28;20047;-81
2023/03/26 13:25:06;;;;;;;0.20;0.10;;;;;;;;;;4970973;28;20061;-86
2023/03/26 13:27:57;;;;;;;0.20;0.10;;;;;;;;;;5015976;28;20079;-83
2023/03/26 13:31:01;;;;;;;;;;;;;;;;;;;;;
2023/03/26 13:33:50;;;;;;;0.22;0.22;;;;;;;;;;4972616;28;20054;-88
2023/03/26 13:36:30;;;;;;;0.25;0.20;;;;;;;;;;4989514;28;20038;-85
2023/03/26 13:39:03;;;;;;;0.20;0.10;;;;;;;;;;4965233;28;20081;-83
2023/03/26 13:41:48;;;;;;;0.20;0.10;;;;;;;;;;5005779;28;20108;-85
2023/03/26 13:44:22;;;;;;;0.20;0.10;;;;;;;;;;5003758;28;20046;-83
2023/03/26 13:46:48;;;;;;;0.20;0.05;;;;;;;;;;4973805;28;20047;-84
2023/03/26 13:49:23;;;;;;;0.20;0.10;;;;;;;;;;4994332;28;20183;-80
2023/03/26 13:55:17;;;;;;;0.20;0.10;;;;;;;;;;4995055;28;20057;-84
2023/03/26 13:57:55;;;;;;;0.20;0.10;;;;;;;;;;4978074;28;20128;-83
2023/03/26 14:01:02;;;;;;;0.28;0.20;;;;;;;;;;5007201;28;20045;-83
2023/03/26 14:03:53;;;;;;;0.20;0.10;;;;;;;;;;4990953;28;20076;-85
2023/03/26 14:06:24;;;;;;;0.20;0.10;;;;;;;;;;5010358;28;20068;-83
2023/03/26 14:09:22;;;;;;;;;;;;;;;;;;;;;
2023/03/26 14:12:33;;;;;;;;;;;;;;;;;;;;;
2023/03/26 14:15:04;;;;;;;0.20;0.20;;;;;;;;;;5025555;28;20154;-81
2023/03/26 14:17:41;;;;;;;0.20;0.10;;;;;;;;;;5017657;28;20048;-83
2023/03/26 14:20:26;;;;;;;0.20;0.10;;;;;;;;;;5020094;28;20047;-83
2023/03/26 14:23:07;;;;;;;0.20;0.10;;;;;;;;;;5017353;28;20040;-82
2023/03/26 14:25:54;;;;;;;0.20;0.10;;;;;;;;;;5034971;28;20113;-84
2023/03/26 14:28:20;;;;;;;0.20;0.10;;;;;;;;;;5021359;28;20413;-84
2023/03/26 14:30:54;;;;;;;0.20;0.10;;;;;;;;;;5026155;28;20033;-81
2023/03/26 14:33:37;;;;;;;0.20;0.10;;;;;;;;;;5029278;28;20048;-81
2023/03/26 14:36:13;;;;;;;0.20;0.10;;;;;;;;;;5005731;28;20044;-80
2023/03/26 14:38:39;;;;;;;0.20;0.10;;;;;;;;;;5026492;28;20044;-80
2023/03/26 14:41:05;;;;;;;0.20;0.10;;;;;;;;;;5014302;28;20049;-77
2023/03/26 14:43:50;;;;;;;0.20;0.10;;;;;;;;;;5037453;28;20048;-79
2023/03/26 14:46:16;;;;;;;0.20;0.10;;;;;;;;;;5029785;28;20480;-81
2023/03/26 14:48:46;;;;;;;0.20;0.10;;;;;;;;;;5023065;28;20048;-80
2023/03/26 14:51:27;;;;;;;0.20;0.10;;;;;;;;;;5036426;28;20540;-82
2023/03/26 14:53:59;;;;;;;0.20;0.10;;;;;;;;;;5033501;28;20036;-82
2023/03/26 14:56:25;;;;;;;;;;;;;;;;;;5009411;28;20045;-82
2023/03/26 14:59:15;;;;;;;0.20;0.10;;;;;;;;;;5017939;28;19931;-82
2023/03/26 15:01:47;;;;;;;0.20;0.10;;;;;;;;;;5012342;28;20059;-83
2023/03/26 15:04:16;;;;;;;0.20;0.10;;;;;;;;;;5032139;28;20123;-82
2023/03/26 15:07:04;;;;;;;0.20;0.10;;;;;;;;;;5025430;28;20044;-83
2023/03/26 15:09:33;;;;;;;0.20;0.10;;;;;;;;;;5030967;28;20413;-81
2023/03/26 15:12:15;;;;;;;0.20;0.10;;;;;;;;;;5009108;22;20135;-85
2023/03/26 15:15:03;;;;;;;0.20;0.10;;;;;;;;;;5013313;28;20132;-83
2023/03/26 15:17:43;;;;;;;0.20;0.10;;;;;;;;;;4991090;28;20041;-85